sensor_id;sensor_type;location;lat;lon;timestamp;pressure;altitude;pressure_sealevel;temperature;humidity
12987;BME280;58897;51.960;5.582;2023-04-08T00:00:55;102021.44;;;8.27;100.00
12987;BME280;58897;51.960;5.582;2023-04-08T00:03:21;102019.06;;;8.23;100.00
12987;BME280;58897;51.960;5.582;2023-04-08T00:05:48;102027.03;;;8.24;100.00
12987;BME280;58897;51.960;5.582;2023-04-08T00:08:15;102025.41;;;8.22;100.00
12987;BME280;58897;51.960;5.582;2023-04-08T00:10:41;102016.13;;;8.15;100.00
12987;BME280;58897;51.960;5.582;2023-04-08T00:13:08;102020.88;;;8.11;100.00
12987;BME280;58897;51.960;5.582;2023-04-08T00:15:35;102025.50;;;7.98;100.00
12987;BME280;58897;51.960;5.582;2023-04-08T00:18:02;102031.22;;;7.93;100.00
12987;BME280;58897;51.960;5.582;2023-04-08T00:20:29;102024.38;;;7.89;100.00
12987;BME280;58897;51.960;5.582;2023-04-08T00:22:56;102027.41;;;7.85;100.00
12987;BME280;58897;51.960;5.582;2023-04-08T00:25:22;102016.91;;;7.82;100.00
12987;BME280;58897;51.960;5.582;2023-04-08T00:27:51;102016.72;;;7.72;100.00
12987;BME280;58897;51.960;5.582;2023-04-08T00:30:17;102018.44;;;7.73;100.00
12987;BME280;58897;51.960;5.582;2023-04-08T00:32:44;102022.69;;;7.65;100.00
12987;BME280;58897;51.960;5.582;2023-04-08T00:35:11;102022.22;;;7.71;100.00
12987;BME280;58897;51.960;5.582;2023-04-08T00:37:38;102022.09;;;7.72;100.00
12987;BME280;58897;51.960;5.582;2023-04-08T00:40:06;102015.63;;;7.75;100.00
12987;BME280;58897;51.960;5.582;2023-04-08T00:42:33;102026.91;;;7.80;100.00
12987;BME280;58897;51.960;5.582;2023-04-08T00:44:59;102024.78;;;7.72;100.00
12987;BME280;58897;51.960;5.582;2023-04-08T00:47:26;102017.50;;;7.74;100.00
12987;BME280;58897;51.960;5.582;2023-04-08T00:49:53;102031.03;;;7.73;100.00
12987;BME280;58897;51.960;5.582;2023-04-08T00:52:19;102027.63;;;7.71;100.00
12987;BME280;58897;51.960;5.582;2023-04-08T00:54:46;102028.13;;;7.76;100.00
12987;BME280;58897;51.960;5.582;2023-04-08T00:57:12;102031.50;;;7.67;100.00
12987;BME280;58897;51.960;5.582;2023-04-08T00:59:39;102031.63;;;7.65;100.00
12987;BME280;58897;51.960;5.582;2023-04-08T01:07:30;102037.13;;;7.64;100.00
12987;BME280;58897;51.960;5.582;2023-04-08T01:10:02;102049.72;;;7.63;100.00
12987;BME280;58897;51.960;5.582;2023-04-08T01:12:31;102046.44;;;7.71;100.00
12987;BME280;58897;51.960;5.582;2023-04-08T01:15:03;102041.94;;;7.71;100.00
12987;BME280;58897;51.960;5.582;2023-04-08T01:17:32;102044.72;;;7.70;100.00
12987;BME280;58897;51.960;5.582;2023-04-08T01:20:00;102042.25;;;7.67;100.00
12987;BME280;58897;51.960;5.582;2023-04-08T01:25:17;102046.03;;;7.64;100.00
12987;BME280;58897;51.960;5.582;2023-04-08T01:27:46;102043.25;;;7.66;100.00
12987;BME280;58897;51.960;5.582;2023-04-08T01:30:14;102045.81;;;7.67;100.00
12987;BME280;58897;51.960;5.582;2023-04-08T01:32:43;102048.34;;;7.58;100.00
12987;BME280;58897;51.960;5.582;2023-04-08T01:35:14;102044.56;;;7.60;100.00
12987;BME280;58897;51.960;5.582;2023-04-08T01:37:42;102045.00;;;7.54;100.00
12987;BME280;58897;51.960;5.582;2023-04-08T01:40:09;102046.59;;;7.57;100.00
12987;BME280;58897;51.960;5.582;2023-04-08T01:42:36;102043.06;;;7.56;100.00
12987;BME280;58897;51.960;5.582;2023-04-08T01:45:08;102044.03;;;7.55;100.00
12987;BME280;58897;51.960;5.582;2023-04-08T01:47:36;102050.03;;;7.59;100.00
12987;BME280;58897;51.960;5.582;2023-04-08T01:50:04;102048.44;;;7.56;100.00
12987;BME280;58897;51.960;5.582;2023-04-08T01:52:33;102051.25;;;7.55;100.00
12987;BME280;58897;51.960;5.582;2023-04-08T01:55:00;102056.97;;;7.50;100.00
12987;BME280;58897;51.960;5.582;2023-04-08T01:57:31;102046.22;;;7.50;100.00
12987;BME280;58897;51.960;5.582;2023-04-08T02:00:02;102052.91;;;7.44;100.00
12987;BME280;58897;51.960;5.582;2023-04-08T02:02:31;102051.09;;;7.45;100.00
12987;BME280;58897;51.960;5.582;2023-04-08T02:04:58;102044.94;;;7.43;100.00
12987;BME280;58897;51.960;5.582;2023-04-08T02:07:26;102051.25;;;7.55;100.00
12987;BME280;58897;51.960;5.582;2023-04-08T02:09:53;102045.34;;;7.50;100.00
12987;BME280;58897;51.960;5.582;2023-04-08T02:12:19;102050.50;;;7.53;100.00
12987;BME280;58897;51.960;5.582;2023-04-08T02:14:46;102046.59;;;7.57;100.00
12987;BME280;58897;51.960;5.582;2023-04-08T02:17:20;102047.09;;;7.51;100.00
12987;BME280;58897;51.960;5.582;2023-04-08T02:20:07;102054.91;;;7.54;100.00
12987;BME280;58897;51.960;5.582;2023-04-08T02:25:55;102045.06;;;7.41;100.00
12987;BME280;58897;51.960;5.582;2023-04-08T02:28:22;102049.25;;;7.45;100.00
12987;BME280;58897;51.960;5.582;2023-04-08T02:30:52;102058.94;;;7.48;100.00
12987;BME280;58897;51.960;5.582;2023-04-08T02:33:21;102046.44;;;7.47;100.00
12987;BME280;58897;51.960;5.582;2023-04-08T02:35:49;102056.56;;;7.43;100.00
12987;BME280;58897;51.960;5.582;2023-04-08T02:38:16;102059.88;;;7.47;100.00
12987;BME280;58897;51.960;5.582;2023-04-08T02:40:43;102054.72;;;7.44;100.00
12987;BME280;58897;51.960;5.582;2023-04-08T02:43:09;102050.88;;;7.35;100.00
12987;BME280;58897;51.960;5.582;2023-04-08T02:45:39;102053.63;;;7.23;100.00
12987;BME280;58897;51.960;5.582;2023-04-08T02:48:06;102062.16;;;7.17;100.00
12987;BME280;58897;51.960;5.582;2023-04-08T02:50:33;102059.06;;;7.34;100.00
12987;BME280;58897;51.960;5.582;2023-04-08T02:52:59;102052.75;;;7.35;100.00
12987;BME280;58897;51.960;5.582;2023-04-08T02:55:26;102056.75;;;7.29;100.00
12987;BME280;58897;51.960;5.582;2023-04-08T02:57:53;102061.59;;;7.24;100.00
12987;BME280;58897;51.960;5.582;2023-04-08T03:00:19;102067.59;;;7.28;100.00
12987;BME280;58897;51.960;5.582;2023-04-08T03:02:46;102061.75;;;7.34;100.00
12987;BME280;58897;51.960;5.582;2023-04-08T03:05:13;102059.31;;;7.31;100.00
12987;BME280;58897;51.960;5.582;2023-04-08T03:07:41;102061.03;;;7.32;100.00
12987;BME280;58897;51.960;5.582;2023-04-08T03:10:08;102067.06;;;7.23;100.00
12987;BME280;58897;51.960;5.582;2023-04-08T03:12:34;102065.47;;;7.20;100.00
12987;BME280;58897;51.960;5.582;2023-04-08T03:15:01;102065.38;;;7.22;100.00
12987;BME280;58897;51.960;5.582;2023-04-08T03:17:29;102070.00;;;7.07;100.00
12987;BME280;58897;51.960;5.582;2023-04-08T03:19:59;102066.25;;;7.10;100.00
12987;BME280;58897;51.960;5.582;2023-04-08T03:22:26;102071.13;;;6.92;100.00
12987;BME280;58897;51.960;5.582;2023-04-08T03:24:52;102070.25;;;6.92;100.00
12987;BME280;58897;51.960;5.582;2023-04-08T03:27:19;102071.88;;;6.81;100.00
12987;BME280;58897;51.960;5.582;2023-04-08T03:29:45;102077.69;;;6.88;100.00
12987;BME280;58897;51.960;5.582;2023-04-08T03:32:13;102071.13;;;6.92;100.00
12987;BME280;58897;51.960;5.582;2023-04-08T03:34:41;102072.56;;;6.72;100.00
12987;BME280;58897;51.960;5.582;2023-04-08T03:37:07;102065.13;;;6.76;100.00
12987;BME280;58897;51.960;5.582;2023-04-08T03:39:34;102071.16;;;6.67;100.00
12987;BME280;58897;51.960;5.582;2023-04-08T03:42:02;102069.31;;;6.55;100.00
12987;BME280;58897;51.960;5.582;2023-04-08T03:44:29;102069.97;;;6.71;100.00
12987;BME280;58897;51.960;5.582;2023-04-08T03:46:55;102073.84;;;6.42;100.00
12987;BME280;58897;51.960;5.582;2023-04-08T03:49:22;102073.94;;;6.53;100.00
12987;BME280;58897;51.960;5.582;2023-04-08T03:51:48;102079.53;;;6.50;100.00
12987;BME280;58897;51.960;5.582;2023-04-08T03:54:15;102073.75;;;6.43;100.00
12987;BME280;58897;51.960;5.582;2023-04-08T03:56:42;102077.38;;;6.42;100.00
12987;BME280;58897;51.960;5.582;2023-04-08T03:59:08;102079.00;;;6.57;100.00
12987;BME280;58897;51.960;5.582;2023-04-08T04:01:35;102076.22;;;6.46;100.00
12987;BME280;58897;51.960;5.582;2023-04-08T04:04:01;102078.78;;;6.48;100.00
12987;BME280;58897;51.960;5.582;2023-04-08T04:06:28;102080.59;;;6.47;100.00
12987;BME280;58897;51.960;5.582;2023-04-08T04:08:54;102083.19;;;6.49;100.00
12987;BME280;58897;51.960;5.582;2023-04-08T04:11:21;102086.91;;;6.34;100.00
12987;BME280;58897;51.960;5.582;2023-04-08T04:13:48;102091.66;;;6.30;100.00
12987;BME280;58897;51.960;5.582;2023-04-08T04:16:15;102094.09;;;6.20;100.00
12987;BME280;58897;51.960;5.582;2023-04-08T04:18:42;102095.50;;;6.26;100.00
12987;BME280;58897;51.960;5.582;2023-04-08T04:21:08;102104.59;;;6.11;100.00
12987;BME280;58897;51.960;5.582;2023-04-08T04:23:35;102103.31;;;6.04;100.00
12987;BME280;58897;51.960;5.582;2023-04-08T04:26:07;102117.81;;;6.14;100.00
12987;BME280;58897;51.960;5.582;2023-04-08T04:28:34;102117.50;;;6.18;100.00
12987;BME280;58897;51.960;5.582;2023-04-08T04:31:00;102118.47;;;6.17;100.00
12987;BME280;58897;51.960;5.582;2023-04-08T04:33:28;102120.19;;;6.18;100.00
12987;BME280;58897;51.960;5.582;2023-04-08T04:35:54;102129.81;;;6.08;100.00
12987;BME280;58897;51.960;5.582;2023-04-08T04:38:23;102131.91;;;6.17;100.00
12987;BME280;58897;51.960;5.582;2023-04-08T04:40:49;102131.97;;;6.03;100.00
12987;BME280;58897;51.960;5.582;2023-04-08T04:43:16;102137.78;;;6.10;100.00
12987;BME280;58897;51.960;5.582;2023-04-08T04:45:42;102138.88;;;6.20;100.00
12987;BME280;58897;51.960;5.582;2023-04-08T04:48:10;102134.59;;;6.17;100.00
12987;BME280;58897;51.960;5.582;2023-04-08T04:50:37;102148.63;;;6.21;100.00
12987;BME280;58897;51.960;5.582;2023-04-08T04:53:03;102145.16;;;6.06;100.00
12987;BME280;58897;51.960;5.582;2023-04-08T04:55:30;102136.56;;;6.01;100.00
12987;BME280;58897;51.960;5.582;2023-04-08T04:57:56;102144.41;;;6.04;100.00
12987;BME280;58897;51.960;5.582;2023-04-08T05:00:23;102145.38;;;6.03;100.00
12987;BME280;58897;51.960;5.582;2023-04-08T05:02:49;102146.31;;;6.02;100.00
12987;BME280;58897;51.960;5.582;2023-04-08T05:05:16;102142.81;;;6.02;100.00
12987;BME280;58897;51.960;5.582;2023-04-08T05:07:43;102147.72;;;6.08;100.00
12987;BME280;58897;51.960;5.582;2023-04-08T05:10:09;102151.47;;;6.05;100.00
12987;BME280;58897;51.960;5.582;2023-04-08T05:12:36;102148.00;;;5.91;100.00
12987;BME280;58897;51.960;5.582;2023-04-08T05:15:04;102156.72;;;5.94;100.00
12987;BME280;58897;51.960;5.582;2023-04-08T05:17:31;102149.63;;;5.93;100.00
12987;BME280;58897;51.960;5.582;2023-04-08T05:19:58;102149.16;;;5.87;100.00
12987;BME280;58897;51.960;5.582;2023-04-08T05:22:25;102160.78;;;6.00;100.00
12987;BME280;58897;51.960;5.582;2023-04-08T05:24:51;102158.75;;;5.91;100.00
12987;BME280;58897;51.960;5.582;2023-04-08T05:27:18;102163.25;;;5.90;100.00
12987;BME280;58897;51.960;5.582;2023-04-08T05:29:44;102164.00;;;5.92;100.00
12987;BME280;58897;51.960;5.582;2023-04-08T05:32:11;102165.72;;;5.93;100.00
12987;BME280;58897;51.960;5.582;2023-04-08T05:34:37;102169.28;;;5.80;100.00
12987;BME280;58897;51.960;5.582;2023-04-08T05:37:04;102172.63;;;5.83;100.00
12987;BME280;58897;51.960;5.582;2023-04-08T05:39:30;102168.56;;;5.63;100.00
12987;BME280;58897;51.960;5.582;2023-04-08T05:41:57;102171.41;;;5.89;100.00
12987;BME280;58897;51.960;5.582;2023-04-08T05:44:24;102161.22;;;5.80;100.00
12987;BME280;58897;51.960;5.582;2023-04-08T05:46:50;102177.06;;;5.70;100.00
12987;BME280;58897;51.960;5.582;2023-04-08T05:49:17;102179.00;;;5.68;100.00
12987;BME280;58897;51.960;5.582;2023-04-08T05:51:44;102177.44;;;5.78;100.00
12987;BME280;58897;51.960;5.582;2023-04-08T05:54:10;102177.72;;;5.74;100.00
12987;BME280;58897;51.960;5.582;2023-04-08T05:56:37;102180.88;;;5.80;100.00
12987;BME280;58897;51.960;5.582;2023-04-08T05:59:03;102185.00;;;5.72;100.00
12987;BME280;58897;51.960;5.582;2023-04-08T06:01:30;102181.34;;;5.87;100.00
12987;BME280;58897;51.960;5.582;2023-04-08T06:03:57;102186.22;;;5.94;100.00
12987;BME280;58897;51.960;5.582;2023-04-08T06:06:24;102182.94;;;6.03;100.00
12987;BME280;58897;51.960;5.582;2023-04-08T06:08:51;102186.50;;;5.90;100.00
12987;BME280;58897;51.960;5.582;2023-04-08T06:11:18;102186.22;;;5.80;100.00
12987;BME280;58897;51.960;5.582;2023-04-08T06:13:44;102183.25;;;5.99;100.00
12987;BME280;58897;51.960;5.582;2023-04-08T06:16:15;102181.84;;;6.06;100.00
12987;BME280;58897;51.960;5.582;2023-04-08T06:18:46;102189.38;;;5.87;100.00
12987;BME280;58897;51.960;5.582;2023-04-08T06:21:13;102186.88;;;5.98;100.00
12987;BME280;58897;51.960;5.582;2023-04-08T06:23:39;102191.63;;;6.07;100.00
12987;BME280;58897;51.960;5.582;2023-04-08T06:26:06;102193.22;;;5.97;100.00
12987;BME280;58897;51.960;5.582;2023-04-08T06:28:33;102198.13;;;6.17;100.00
12987;BME280;58897;51.960;5.582;2023-04-08T06:30:59;102190.25;;;6.14;100.00
12987;BME280;58897;51.960;5.582;2023-04-08T06:33:26;102196.72;;;6.24;100.00
12987;BME280;58897;51.960;5.582;2023-04-08T06:36:04;102194.72;;;6.28;100.00
12987;BME280;58897;51.960;5.582;2023-04-08T06:38:31;102201.06;;;6.39;100.00
12987;BME280;58897;51.960;5.582;2023-04-08T06:41:02;102205.81;;;6.48;100.00
12987;BME280;58897;51.960;5.582;2023-04-08T06:43:29;102201.56;;;6.32;100.00
12987;BME280;58897;51.960;5.582;2023-04-08T06:45:56;102203.84;;;6.38;100.00
12987;BME280;58897;51.960;5.582;2023-04-08T06:48:24;102203.34;;;6.45;100.00
12987;BME280;58897;51.960;5.582;2023-04-08T06:50:55;102205.28;;;6.56;100.00
12987;BME280;58897;51.960;5.582;2023-04-08T06:53:22;102210.41;;;6.86;100.00
12987;BME280;58897;51.960;5.582;2023-04-08T06:55:49;102212.97;;;6.74;100.00
12987;BME280;58897;51.960;5.582;2023-04-08T06:58:16;102228.19;;;6.74;100.00
12987;BME280;58897;51.960;5.582;2023-04-08T07:00:43;102215.78;;;6.86;100.00
12987;BME280;58897;51.960;5.582;2023-04-08T07:03:10;102227.78;;;6.80;100.00
12987;BME280;58897;51.960;5.582;2023-04-08T07:05:38;102225.94;;;6.68;100.00
12987;BME280;58897;51.960;5.582;2023-04-08T07:08:05;102232.69;;;6.61;100.00
12987;BME280;58897;51.960;5.582;2023-04-08T07:10:31;102224.03;;;6.95;100.00
12987;BME280;58897;51.960;5.582;2023-04-08T07:12:58;102237.81;;;7.03;100.00
12987;BME280;58897;51.960;5.582;2023-04-08T07:15:25;102236.72;;;7.18;100.00
12987;BME280;58897;51.960;5.582;2023-04-08T07:17:51;102239.06;;;7.35;100.00
12987;BME280;58897;51.960;5.582;2023-04-08T07:20:18;102234.84;;;7.57;100.00
12987;BME280;58897;51.960;5.582;2023-04-08T07:22:44;102235.91;;;7.67;100.00
12987;BME280;58897;51.960;5.582;2023-04-08T07:25:11;102236.97;;;7.77;100.00
12987;BME280;58897;51.960;5.582;2023-04-08T07:27:38;102247.34;;;7.94;100.00
12987;BME280;58897;51.960;5.582;2023-04-08T07:30:05;102243.91;;;8.52;100.00
12987;BME280;58897;51.960;5.582;2023-04-08T07:32:32;102247.84;;;8.59;100.00
12987;BME280;58897;51.960;5.582;2023-04-08T07:35:00;102244.56;;;8.66;100.00
12987;BME280;58897;51.960;5.582;2023-04-08T07:37:27;102243.00;;;9.43;100.00
12987;BME280;58897;51.960;5.582;2023-04-08T07:39:55;102230.56;;;9.96;100.00
12987;BME280;58897;51.960;5.582;2023-04-08T07:42:21;102227.94;;;10.28;100.00
12987;BME280;58897;51.960;5.582;2023-04-08T07:44:48;102229.81;;;10.16;100.00
12987;BME280;58897;51.960;5.582;2023-04-08T07:47:14;102227.75;;;10.72;100.00
12987;BME280;58897;51.960;5.582;2023-04-08T07:49:42;102224.00;;;11.05;100.00
12987;BME280;58897;51.960;5.582;2023-04-08T07:52:12;102228.78;;;11.22;100.00
12987;BME280;58897;51.960;5.582;2023-04-08T07:54:39;102233.44;;;11.41;100.00
12987;BME280;58897;51.960;5.582;2023-04-08T07:57:06;102229.81;;;11.61;100.00
12987;BME280;58897;51.960;5.582;2023-04-08T07:59:32;102233.97;;;11.65;100.00
12987;BME280;58897;51.960;5.582;2023-04-08T08:01:59;102236.00;;;11.42;100.00
12987;BME280;58897;51.960;5.582;2023-04-08T08:04:25;102225.84;;;12.05;100.00
12987;BME280;58897;51.960;5.582;2023-04-08T08:06:52;102228.16;;;12.09;100.00
12987;BME280;58897;51.960;5.582;2023-04-08T08:09:18;102228.34;;;12.46;100.00
12987;BME280;58897;51.960;5.582;2023-04-08T08:11:45;102225.63;;;12.56;100.00
12987;BME280;58897;51.960;5.582;2023-04-08T08:14:13;102223.34;;;12.32;100.00
12987;BME280;58897;51.960;5.582;2023-04-08T08:16:39;102227.03;;;12.79;100.00
12987;BME280;58897;51.960;5.582;2023-04-08T08:19:06;102222.97;;;13.31;100.00
12987;BME280;58897;51.960;5.582;2023-04-08T08:21:36;102231.59;;;13.07;100.00
12987;BME280;58897;51.960;5.582;2023-04-08T08:24:03;102231.31;;;12.62;100.00
12987;BME280;58897;51.960;5.582;2023-04-08T08:26:30;102232.25;;;13.28;100.00
12987;BME280;58897;51.960;5.582;2023-04-08T08:28:56;102230.53;;;13.74;100.00
12987;BME280;58897;51.960;5.582;2023-04-08T08:31:23;102231.16;;;13.85;100.00
12987;BME280;58897;51.960;5.582;2023-04-08T08:33:49;102221.13;;;14.40;100.00
12987;BME280;58897;51.960;5.582;2023-04-08T08:36:16;102234.09;;;14.01;100.00
12987;BME280;58897;51.960;5.582;2023-04-08T08:38:43;102230.50;;;14.46;100.00
12987;BME280;58897;51.960;5.582;2023-04-08T08:41:10;102231.59;;;14.70;100.00
12987;BME280;58897;51.960;5.582;2023-04-08T08:43:37;102234.31;;;14.35;100.00
12987;BME280;58897;51.960;5.582;2023-04-08T08:46:05;102237.25;;;14.77;100.00
12987;BME280;58897;51.960;5.582;2023-04-08T08:48:37;102242.63;;;15.12;100.00
12987;BME280;58897;51.960;5.582;2023-04-08T08:51:09;102239.41;;;15.34;100.00
12987;BME280;58897;51.960;5.582;2023-04-08T08:53:37;102238.44;;;15.18;100.00
12987;BME280;58897;51.960;5.582;2023-04-08T08:56:04;102243.84;;;15.61;100.00
12987;BME280;58897;51.960;5.582;2023-04-08T08:58:43;102243.63;;;15.55;100.00
12987;BME280;58897;51.960;5.582;2023-04-08T09:01:32;102249.53;;;15.24;100.00
12987;BME280;58897;51.960;5.582;2023-04-08T09:04:10;102245.66;;;14.03;100.00
12987;BME280;58897;51.960;5.582;2023-04-08T09:06:37;102252.38;;;15.40;100.00
12987;BME280;58897;51.960;5.582;2023-04-08T09:09:04;102245.41;;;15.64;100.00
12987;BME280;58897;51.960;5.582;2023-04-08T09:11:44;102247.63;;;16.10;100.00
12987;BME280;58897;51.960;5.582;2023-04-08T09:14:24;102255.97;;;16.17;100.00
12987;BME280;58897;51.960;5.582;2023-04-08T09:16:51;102250.34;;;17.00;100.00
12987;BME280;58897;51.960;5.582;2023-04-08T09:19:18;102254.78;;;17.17;100.00
12987;BME280;58897;51.960;5.582;2023-04-08T09:21:45;102264.69;;;16.78;100.00
12987;BME280;58897;51.960;5.582;2023-04-08T09:24:27;102264.66;;;17.26;100.00
12987;BME280;58897;51.960;5.582;2023-04-08T09:26:54;102254.94;;;17.24;100.00
12987;BME280;58897;51.960;5.582;2023-04-08T09:29:25;102264.66;;;17.10;100.00
12987;BME280;58897;51.960;5.582;2023-04-08T09:31:59;102274.50;;;17.60;100.00
12987;BME280;58897;51.960;5.582;2023-04-08T09:34:28;102269.75;;;17.62;99.37
12987;BME280;58897;51.960;5.582;2023-04-08T09:36:55;102268.22;;;17.51;100.00
12987;BME280;58897;51.960;5.582;2023-04-08T09:39:22;102269.25;;;17.58;100.00
12987;BME280;58897;51.960;5.582;2023-04-08T09:41:49;102267.69;;;17.48;97.58
12987;BME280;58897;51.960;5.582;2023-04-08T09:44:18;102267.66;;;17.80;100.00
12987;BME280;58897;51.960;5.582;2023-04-08T09:46:55;102266.69;;;18.04;97.88
12987;BME280;58897;51.960;5.582;2023-04-08T09:49:47;102267.59;;;17.96;96.30
12987;BME280;58897;51.960;5.582;2023-04-08T09:52:29;102265.53;;;18.60;97.85
12987;BME280;58897;51.960;5.582;2023-04-08T09:55:06;102273.41;;;18.63;88.56
12987;BME280;58897;51.960;5.582;2023-04-08T09:57:40;102265.00;;;18.87;95.74
12987;BME280;58897;51.960;5.582;2023-04-08T10:00:14;102272.19;;;19.10;85.69
12987;BME280;58897;51.960;5.582;2023-04-08T10:05:30;102262.53;;;19.66;87.50
12987;BME280;58897;51.960;5.582;2023-04-08T10:07:56;102256.31;;;19.87;89.06
12987;BME280;58897;51.960;5.582;2023-04-08T10:10:24;102250.19;;;19.19;88.25
12987;BME280;58897;51.960;5.582;2023-04-08T10:12:51;102247.97;;;19.66;85.11
12987;BME280;58897;51.960;5.582;2023-04-08T10:15:28;102248.06;;;19.43;84.04
12987;BME280;58897;51.960;5.582;2023-04-08T10:23:00;102242.53;;;20.31;74.15
12987;BME280;58897;51.960;5.582;2023-04-08T10:25:28;102252.63;;;19.80;83.32
12987;BME280;58897;51.960;5.582;2023-04-08T10:27:56;102249.19;;;20.58;74.87
12987;BME280;58897;51.960;5.582;2023-04-08T10:32:59;102248.28;;;20.72;70.12
12987;BME280;58897;51.960;5.582;2023-04-08T10:35:30;102251.06;;;20.36;61.23
12987;BME280;58897;51.960;5.582;2023-04-08T10:37:57;102247.41;;;20.50;66.29
12987;BME280;58897;51.960;5.582;2023-04-08T10:40:24;102247.47;;;20.99;69.10
12987;BME280;58897;51.960;5.582;2023-04-08T10:42:55;102240.69;;;20.74;59.99
12987;BME280;58897;51.960;5.582;2023-04-08T10:45:22;102242.19;;;20.76;72.21
12987;BME280;58897;51.960;5.582;2023-04-08T10:47:49;102250.19;;;20.71;66.25
12987;BME280;58897;51.960;5.582;2023-04-08T10:50:18;102238.03;;;20.59;62.42
12987;BME280;58897;51.960;5.582;2023-04-08T10:52:48;102237.66;;;19.97;59.36
12987;BME280;58897;51.960;5.582;2023-04-08T10:55:15;102239.38;;;20.91;67.59
12987;BME280;58897;51.960;5.582;2023-04-08T10:57:43;102229.53;;;20.54;61.15
12987;BME280;58897;51.960;5.582;2023-04-08T11:00:16;102230.59;;;21.23;55.94
12987;BME280;58897;51.960;5.582;2023-04-08T11:02:43;102235.00;;;21.18;55.04
12987;BME280;58897;51.960;5.582;2023-04-08T11:05:10;102226.72;;;21.80;53.00
12987;BME280;58897;51.960;5.582;2023-04-08T11:07:40;102232.25;;;21.45;62.02
12987;BME280;58897;51.960;5.582;2023-04-08T11:10:08;102235.41;;;21.77;52.11
12987;BME280;58897;51.960;5.582;2023-04-08T11:12:34;102235.81;;;22.08;51.30
12987;BME280;58897;51.960;5.582;2023-04-08T11:15:03;102223.34;;;22.25;47.86
12987;BME280;58897;51.960;5.582;2023-04-08T11:17:33;102237.53;;;21.81;53.61
12987;BME280;58897;51.960;5.582;2023-04-08T11:20:00;102232.13;;;21.94;46.36
12987;BME280;58897;51.960;5.582;2023-04-08T11:22:32;102226.72;;;21.11;48.59
12987;BME280;58897;51.960;5.582;2023-04-08T11:25:00;102235.91;;;19.60;58.73
12987;BME280;58897;51.960;5.582;2023-04-08T11:27:27;102232.91;;;18.95;59.07
12987;BME280;58897;51.960;5.582;2023-04-08T11:29:55;102233.25;;;19.52;53.36
12987;BME280;58897;51.960;5.582;2023-04-08T11:32:22;102228.97;;;19.94;52.60
12987;BME280;58897;51.960;5.582;2023-04-08T11:34:49;102233.66;;;19.27;54.44
12987;BME280;58897;51.960;5.582;2023-04-08T11:37:15;102232.03;;;20.35;60.14
12987;BME280;58897;51.960;5.582;2023-04-08T11:39:42;102234.09;;;21.11;56.13
12987;BME280;58897;51.960;5.582;2023-04-08T11:42:28;102230.06;;;20.64;50.31
12987;BME280;58897;51.960;5.582;2023-04-08T11:44:55;102225.25;;;21.15;48.98
12987;BME280;58897;51.960;5.582;2023-04-08T11:47:32;102228.97;;;20.65;57.36
12987;BME280;58897;51.960;5.582;2023-04-08T11:50:00;102234.13;;;20.33;53.37
12987;BME280;58897;51.960;5.582;2023-04-08T11:52:46;102233.69;;;20.71;51.18
12987;BME280;58897;51.960;5.582;2023-04-08T11:55:31;102222.53;;;19.87;52.50
12987;BME280;58897;51.960;5.582;2023-04-08T11:58:03;102226.34;;;19.71;54.52
12987;BME280;58897;51.960;5.582;2023-04-08T12:00:30;102223.50;;;19.64;57.60
12987;BME280;58897;51.960;5.582;2023-04-08T12:02:58;102235.03;;;19.45;61.19
12987;BME280;58897;51.960;5.582;2023-04-08T12:05:25;102229.97;;;19.20;65.95
12987;BME280;58897;51.960;5.582;2023-04-08T12:07:51;102236.00;;;19.67;60.96
12987;BME280;58897;51.960;5.582;2023-04-08T12:10:18;102223.13;;;19.53;54.71
12987;BME280;58897;51.960;5.582;2023-04-08T12:12:45;102228.84;;;19.29;56.72
12987;BME280;58897;51.960;5.582;2023-04-08T12:15:12;102219.34;;;19.54;58.00
12987;BME280;58897;51.960;5.582;2023-04-08T12:17:38;102226.91;;;18.77;63.54
12987;BME280;58897;51.960;5.582;2023-04-08T12:20:05;102226.03;;;18.85;63.30
12987;BME280;58897;51.960;5.582;2023-04-08T12:22:33;102221.19;;;18.64;61.64
12987;BME280;58897;51.960;5.582;2023-04-08T12:24:59;102216.53;;;18.73;66.35
12987;BME280;58897;51.960;5.582;2023-04-08T12:27:31;102227.91;;;18.31;74.42
12987;BME280;58897;51.960;5.582;2023-04-08T12:30:02;102229.03;;;17.83;74.88
12987;BME280;58897;51.960;5.582;2023-04-08T12:32:28;102231.00;;;17.42;68.96
12987;BME280;58897;51.960;5.582;2023-04-08T12:34:55;102233.03;;;17.48;81.24
12987;BME280;58897;51.960;5.582;2023-04-08T12:37:23;102231.06;;;17.18;76.82
12987;BME280;58897;51.960;5.582;2023-04-08T12:39:49;102224.72;;;17.34;77.78
12987;BME280;58897;51.960;5.582;2023-04-08T12:42:16;102227.16;;;17.04;75.73
12987;BME280;58897;51.960;5.582;2023-04-08T12:44:43;102228.50;;;17.00;77.13
12987;BME280;58897;51.960;5.582;2023-04-08T12:47:09;102234.63;;;17.18;77.42
12987;BME280;58897;51.960;5.582;2023-04-08T12:49:36;102224.41;;;17.12;72.67
12987;BME280;58897;51.960;5.582;2023-04-08T12:52:14;102233.97;;;17.00;70.89
12987;BME280;58897;51.960;5.582;2023-04-08T12:54:41;102229.88;;;16.80;73.10
12987;BME280;58897;51.960;5.582;2023-04-08T12:57:07;102232.16;;;17.64;72.58
12987;BME280;58897;51.960;5.582;2023-04-08T12:59:34;102222.59;;;18.83;68.50
12987;BME280;58897;51.960;5.582;2023-04-08T13:02:01;102217.22;;;19.27;66.89
12987;BME280;58897;51.960;5.582;2023-04-08T13:04:27;102217.13;;;19.20;62.72
12987;BME280;58897;51.960;5.582;2023-04-08T13:06:54;102218.06;;;19.13;57.72
12987;BME280;58897;51.960;5.582;2023-04-08T13:09:21;102222.59;;;19.57;59.88
12987;BME280;58897;51.960;5.582;2023-04-08T13:11:48;102217.56;;;19.09;60.65
12987;BME280;58897;51.960;5.582;2023-04-08T13:14:15;102216.72;;;19.60;49.82